Nearby METAR* Reports

*"METAR [Météorologique Aviation Régulière] is the international standard code format for hourly surface weather observations which is analogous to the SA coding currently used in the US. The acronym roughly translates from French as Aviation Routine Weather Report." (Source: https://www.ncdc.noaa.gov/wdcmet/data-access-search-viewer-tools/metar-terminal-aerodrome-forecast-taf-faq)

 

KTEB - Teterboro, New Jersey, USA
Distance from station: ENE 2mi, 3km
Updated: 05/26/2024 2:51pm
Clear
Clear
 Wind from S
Wind: S 8 mph, 13 km/h
Temperature: 82°F, 28°C
Heat Index: 83°F, 28°C
Dew Point: 63°F, 17°C
Humidity: 51%
Barometer: 29.90 inHg, 1012.5 hPa
Clouds: Clear
Visibility: 10 miles, 16 km
2024/05/26 18:51 KTEB 261851Z 19007KT 10SM CLR 28/17 A2990 RMK AO2 SLP131 T02830172 $
KNYC - Nyc/Central Park, New York, USA
Distance from station: SE 8mi, 13km
Updated: 05/26/2024 2:51pm
Clear
Clear
 
Temperature: 81°F, 27°C
Heat Index: 82°F, 28°C
Dew Point: 63°F, 17°C
Humidity: 54%
Barometer: 29.92 inHg, 1013.2 hPa
Clouds: Clear
Visibility: 10 miles, 16 km
2024/05/26 18:51 KNYC 261851Z AUTO 10SM CLR 27/17 A2992 RMK AO2 SLP121 T02670167 $
KCDW - Caldwell, New Jersey, USA
Distance from station: W 11mi, 17km
Updated: 05/26/2024 2:53pm
Mostly cloudy
Mostly cloudy
 Wind from SSE
Wind: SSE 8 mph, 13 km/h
Temperature: 84°F, 29°C
Heat Index: 85°F, 29°C
Dew Point: 63°F, 17°C
Humidity: 48%
Barometer: 29.89 inHg, 1012.2 hPa
Clouds: Mostly cloudy
Visibility: 10 miles, 16 km
Cloud details: Partly cloudy 5000 ft
Mostly cloudy 6500 ft
2024/05/26 18:53 KCDW 261853Z 15007KT 10SM SCT050 BKN065 29/17 A2989 RMK AO2 SLP124 T02940167
 
KLGA - Nyc/La Guardia, New York, USA
Distance from station: ESE 12mi, 19km
Updated: 05/26/2024 2:51pm
Mostly cloudy
Mostly cloudy
 Wind from SSE
Wind: SSE 12 mph, 19 km/h
Temperature: 81°F, 27°C
Heat Index: 81°F, 27°C
Dew Point: 59°F, 15°C
Humidity: 48%
Barometer: 29.89 inHg, 1012.2 hPa
Clouds: Mostly cloudy
Visibility: 10 miles, 16 km
Cloud details: Few Clouds 4500 ft
Partly cloudy 6500 ft
Partly cloudy 8500 ft
Mostly cloudy 20000 ft
Mostly cloudy 25000 ft
2024/05/26 18:51 KLGA 261851Z 15010KT 10SM FEW045 SCT065 SCT085 BKN200 BKN250 27/15 A2989 RMK AO2 SLP121 T02670150 $
KEWR - Newark, New Jersey, USA
Distance from station: SSW 13mi, 20km
Updated: 05/26/2024 2:51pm
Mostly cloudy
Mostly cloudy
 Wind from SE
Wind: SE 12 mph, 19 km/h
Temperature: 81°F, 27°C
Heat Index: 82°F, 28°C
Dew Point: 63°F, 17°C
Humidity: 54%
Barometer: 29.88 inHg, 1011.9 hPa
Clouds: Mostly cloudy
Visibility: 10 miles, 16 km
Cloud details: Partly cloudy 6000 ft
Partly cloudy 8000 ft
Partly cloudy 20000 ft
Mostly cloudy 25000 ft
2024/05/26 18:51 KEWR 261851Z 14010KT 10SM SCT060 SCT080 SCT200 BKN250 27/17 A2988 RMK AO2 SLP119 TCU DSNT W T02720167
KMMU - Morristown Muni, New Jersey, USA
Distance from station: WSW 18mi, 29km
Updated: 05/26/2024 2:45pm
Partly cloudy
Partly cloudy
 Wind from SW
Wind: SW 7 mph, 11 km/h
Temperature: 84°F, 29°C
Heat Index: 86°F, 30°C
Dew Point: 66°F, 19°C
Humidity: 55%
Barometer: 29.89 inHg, 1012.2 hPa
Clouds: Partly cloudy
Visibility: 10 miles, 16 km
Cloud details: Partly cloudy 4600 ft
Partly cloudy 5500 ft
2024/05/26 18:45 KMMU 261845Z 22006KT 10SM SCT046 SCT055 29/19 A2989
 
KLDJ - Linden, New Jersey, USA
Distance from station: SSW 19mi, 30km
Updated: 05/26/2024 1:35pm
NOT Current
Partly cloudy
Partly cloudy
 Wind from SSE
Wind: SSE 10 mph, 17 km/h
Temperature: 82°F, 28°C
Heat Index: 83°F, 28°C
Dew Point: 63°F, 17°C
Humidity: 51%
Barometer: 29.90 inHg, 1012.5 hPa
Clouds: Partly cloudy
Visibility: 10 miles, 16 km
Cloud details: Partly cloudy 4600 ft
Partly cloudy 7000 ft
2024/05/26 17:35 KLDJ 261735Z AUTO 15009KT 10SM SCT046 SCT070 28/17 A2990 RMK AO2 T02830173
KJFK - Nyc/Jfk Arpt, New York, USA
Distance from station: SE 23mi, 36km
Updated: 05/26/2024 2:51pm
Mostly cloudy
Mostly cloudy
 Wind from SSE
Wind: SSE 10 mph, 17 km/h
Temperature: 75°F, 24°C
Dew Point: 66°F, 19°C
Humidity: 74%
Barometer: 29.92 inHg, 1013.2 hPa
Clouds: Mostly cloudy
Visibility: 10 miles, 16 km
Cloud details: Few Clouds 300 ft
Partly cloudy 6000 ft
Partly cloudy 20000 ft
Mostly cloudy 25000 ft
2024/05/26 18:51 KJFK 261851Z 16009KT 10SM FEW003 SCT060 SCT200 BKN250 24/19 A2992 RMK AO2 SLP131 T02390194 $
KHPN - White Plains, New York, USA
Distance from station: NE 25mi, 40km
Updated: 05/26/2024 2:56pm
Clear
Clear
 Wind from SE
Wind: SE 9 mph, 15 km/h
Temperature: 79°F, 26°C
Dew Point: 64°F, 18°C
Humidity: 61%
Barometer: 29.90 inHg, 1012.5 hPa
Clouds: Clear
Visibility: 10 miles, 16 km
2024/05/26 18:56 KHPN 261856Z 13008KT 10SM CLR 26/18 A2990 RMK AO2 SLP121 T02560178
 
KSMQ - Somerville, New Jersey, USA
Distance from station: WSW 35mi, 56km
Updated: 05/26/2024 2:53pm
Partly cloudy
Partly cloudy
 Wind from varies
Wind: varies 5 mph, 7 km/h
Temperature: 86°F, 30°C
Heat Index: 91°F, 33°C
Dew Point: 70°F, 21°C
Humidity: 59%
Barometer: 29.86 inHg, 1011.2 hPa
Clouds: Partly cloudy
Visibility: 10 miles, 16 km
Cloud details: Few Clouds 4600 ft
Partly cloudy 7000 ft
2024/05/26 18:53 KSMQ 261853Z AUTO VRB04KT 10SM FEW046 SCT070 30/21 A2986 RMK AO2 SLP111 T03000211
K12N - Andover, New Jersey, USA
Distance from station: WNW 36mi, 57km
Updated: 05/26/2024 2:54pm

 
Temperature: 81°F, 27°C
Heat Index: 83°F, 28°C
Dew Point: 64°F, 18°C
Humidity: 58%
Barometer: 29.89 inHg, 1012.2 hPa
2024/05/26 18:54 K12N 261854Z AUTO 27/18 A2989 RMK AO1 SLP115 P0002 T02720183
KFRG - Farmingdale, New York, USA
Distance from station: ESE 36mi, 58km
Updated: 05/26/2024 3:07pm
Few Clouds
Few Clouds
 Wind from S
Wind: S 9 mph, 15 km/h
Temperature: 75°F, 24°C
Dew Point: 68°F, 20°C
Humidity: 78%
Barometer: 29.92 inHg, 1013.2 hPa
Clouds: Few Clouds
Visibility: 10 miles, 16 km
Cloud details: Few Clouds 1400 ft
2024/05/26 19:07 KFRG 261907Z 19008KT 10SM FEW0140 24/20 A2992
 
KFWN - Sussex, New Jersey, USA
Distance from station: NW 37mi, 60km
Updated: 05/26/2024 2:53pm
Few Clouds
Few Clouds
 Wind from SSE
Wind: SSE 5 mph, 7 km/h
Temperature: 84°F, 29°C
Heat Index: 85°F, 29°C
Dew Point: 64°F, 18°C
Humidity: 51%
Barometer: 29.89 inHg, 1012.2 hPa
Clouds: Few Clouds
Visibility: 10 miles, 16 km
Cloud details: Few Clouds 4800 ft
2024/05/26 18:53 KFWN 261853Z AUTO 16004KT 10SM FEW048 29/18 A2989 RMK AO2 SLP117 T02890183
KSWF - Newburgh/Stewart, New York, USA
Distance from station: 0 44mi, 72km
Updated: 05/26/2024 2:45pm
Partly cloudy
Partly cloudy
 Wind from S
Wind: S 9 mph, 15 km/h
Temperature: 82°F, 28°C
Heat Index: 84°F, 29°C
Dew Point: 64°F, 18°C
Humidity: 55%
Barometer: 29.89 inHg, 1012.2 hPa
Clouds: Partly cloudy
Visibility: 10 miles, 16 km
Cloud details: Partly cloudy 5500 ft
2024/05/26 18:45 KSWF 261845Z 18008KT 10SM SCT055 28/18 A2989
KMGJ - Montgomery, New York, USA
Distance from station: NNW 47mi, 75km
Updated: 05/26/2024 2:54pm
Few Clouds
Few Clouds
 Wind from ESE
Wind: ESE 9 mph, 15 km/h
Temperature: 82°F, 28°C
Heat Index: 84°F, 29°C
Dew Point: 64°F, 18°C
Humidity: 55%
Barometer: 29.87 inHg, 1011.5 hPa
Clouds: Few Clouds
Visibility: 10 miles, 16 km
Cloud details: Few Clouds 4800 ft
2024/05/26 18:54 KMGJ 261854Z AUTO 12008KT 10SM FEW048 28/18 A2987 RMK AO2 SLP113 T02780183
 
KDXR - Danbury, Connecticut, USA
Distance from station: NE 47mi, 76km
Updated: 05/26/2024 2:53pm
Few Clouds
Few Clouds
 Wind from S
Wind: S 12 mph, 19 km/h, Gust: 17 mph, 28 km/h
Temperature: 82°F, 28°C
Heat Index: 83°F, 28°C
Dew Point: 63°F, 17°C
Humidity: 51%
Barometer: 29.90 inHg, 1012.5 hPa
Clouds: Few Clouds
Visibility: 10 miles, 16 km
Cloud details: Few Clouds 4200 ft
2024/05/26 18:53 KDXR 261853Z 18010G15KT 10SM FEW042 28/17 A2990 RMK AO2 SLP121 T02780172 $
KBLM - Belmar/Farmdale, New Jersey, USA
Distance from station: S 48mi, 77km
Updated: 05/26/2024 2:56pm
Clear
Clear
 Wind from SSE
Wind: SSE 15 mph, 24 km/h, Gust: 18 mph, 30 km/h
Temperature: 79°F, 26°C
Dew Point: 66°F, 19°C
Humidity: 65%
Barometer: 29.91 inHg, 1012.9 hPa
Clouds: Clear
2024/05/26 18:56 KBLM 261856Z AUTO 16013G16KT CLR 26/19 A2991 RMK AO2 SLP129 T02560194 PWINO RVRNO $